sensor_id;sensor_type;location;lat;lon;timestamp;P1;durP1;ratioP1;P2;durP2;ratioP2
4601;SDS011;2313;48.552;9.370;2023-02-11T00:00:20;38.90;;;18.03;;
4601;SDS011;2313;48.552;9.370;2023-02-11T00:02:46;31.50;;;17.20;;
4601;SDS011;2313;48.552;9.370;2023-02-11T00:05:11;38.63;;;18.80;;
4601;SDS011;2313;48.552;9.370;2023-02-11T00:07:37;40.17;;;20.50;;
4601;SDS011;2313;48.552;9.370;2023-02-11T00:10:03;40.17;;;20.80;;
4601;SDS011;2313;48.552;9.370;2023-02-11T00:12:32;31.42;;;16.50;;
4601;SDS011;2313;48.552;9.370;2023-02-11T00:14:58;34.05;;;19.13;;
4601;SDS011;2313;48.552;9.370;2023-02-11T00:17:24;37.03;;;18.03;;
4601;SDS011;2313;48.552;9.370;2023-02-11T00:19:50;38.00;;;19.00;;
4601;SDS011;2313;48.552;9.370;2023-02-11T00:22:16;34.83;;;18.58;;
4601;SDS011;2313;48.552;9.370;2023-02-11T00:24:41;33.07;;;18.23;;
4601;SDS011;2313;48.552;9.370;2023-02-11T00:27:07;31.70;;;17.63;;
4601;SDS011;2313;48.552;9.370;2023-02-11T00:29:33;32.63;;;17.43;;
4601;SDS011;2313;48.552;9.370;2023-02-11T00:31:58;38.33;;;17.43;;
4601;SDS011;2313;48.552;9.370;2023-02-11T00:34:29;37.00;;;18.20;;
4601;SDS011;2313;48.552;9.370;2023-02-11T00:36:55;35.28;;;17.35;;
4601;SDS011;2313;48.552;9.370;2023-02-11T00:39:21;29.67;;;16.50;;
4601;SDS011;2313;48.552;9.370;2023-02-11T00:41:46;29.80;;;16.33;;
4601;SDS011;2313;48.552;9.370;2023-02-11T00:44:12;36.47;;;17.60;;
4601;SDS011;2313;48.552;9.370;2023-02-11T00:46:37;30.20;;;15.83;;
4601;SDS011;2313;48.552;9.370;2023-02-11T00:49:03;33.43;;;17.40;;
4601;SDS011;2313;48.552;9.370;2023-02-11T00:51:28;30.30;;;14.53;;
4601;SDS011;2313;48.552;9.370;2023-02-11T00:53:54;33.30;;;14.30;;
4601;SDS011;2313;48.552;9.370;2023-02-11T00:56:20;29.17;;;15.33;;
4601;SDS011;2313;48.552;9.370;2023-02-11T00:58:46;30.40;;;14.80;;
4601;SDS011;2313;48.552;9.370;2023-02-11T01:01:11;30.23;;;14.90;;
4601;SDS011;2313;48.552;9.370;2023-02-11T01:03:38;24.13;;;14.30;;
4601;SDS011;2313;48.552;9.370;2023-02-11T01:06:04;29.30;;;15.25;;
4601;SDS011;2313;48.552;9.370;2023-02-11T01:08:31;30.50;;;16.05;;
4601;SDS011;2313;48.552;9.370;2023-02-11T01:10:58;29.30;;;15.53;;
4601;SDS011;2313;48.552;9.370;2023-02-11T01:13:25;31.10;;;15.55;;
4601;SDS011;2313;48.552;9.370;2023-02-11T01:15:52;28.52;;;15.07;;
4601;SDS011;2313;48.552;9.370;2023-02-11T01:18:18;30.17;;;15.10;;
4601;SDS011;2313;48.552;9.370;2023-02-11T01:20:44;32.00;;;15.40;;
4601;SDS011;2313;48.552;9.370;2023-02-11T01:23:10;27.30;;;14.60;;
4601;SDS011;2313;48.552;9.370;2023-02-11T01:25:36;31.50;;;16.45;;
4601;SDS011;2313;48.552;9.370;2023-02-11T01:28:01;35.53;;;15.50;;
4601;SDS011;2313;48.552;9.370;2023-02-11T01:30:27;28.37;;;16.20;;
4601;SDS011;2313;48.552;9.370;2023-02-11T01:32:52;29.90;;;15.93;;
4601;SDS011;2313;48.552;9.370;2023-02-11T01:35:18;29.77;;;15.50;;
4601;SDS011;2313;48.552;9.370;2023-02-11T01:37:44;32.27;;;17.43;;
4601;SDS011;2313;48.552;9.370;2023-02-11T01:40:14;31.07;;;15.60;;
4601;SDS011;2313;48.552;9.370;2023-02-11T01:42:41;28.63;;;15.98;;
4601;SDS011;2313;48.552;9.370;2023-02-11T01:48:14;33.20;;;15.65;;
4601;SDS011;2313;48.552;9.370;2023-02-11T01:50:46;31.27;;;15.85;;
4601;SDS011;2313;48.552;9.370;2023-02-11T01:53:14;32.42;;;17.10;;
4601;SDS011;2313;48.552;9.370;2023-02-11T01:56:00;29.90;;;14.98;;
4601;SDS011;2313;48.552;9.370;2023-02-11T01:58:45;31.00;;;17.08;;
4601;SDS011;2313;48.552;9.370;2023-02-11T02:01:13;30.25;;;15.30;;
4601;SDS011;2313;48.552;9.370;2023-02-11T02:03:43;28.88;;;15.25;;
4601;SDS011;2313;48.552;9.370;2023-02-11T02:06:33;31.08;;;15.57;;
4601;SDS011;2313;48.552;9.370;2023-02-11T02:09:05;29.65;;;15.65;;
4601;SDS011;2313;48.552;9.370;2023-02-11T02:11:35;27.23;;;15.30;;
4601;SDS011;2313;48.552;9.370;2023-02-11T02:14:01;31.33;;;15.98;;
4601;SDS011;2313;48.552;9.370;2023-02-11T02:16:31;31.08;;;15.57;;
4601;SDS011;2313;48.552;9.370;2023-02-11T02:35:45;29.50;;;15.38;;
4601;SDS011;2313;48.552;9.370;2023-02-11T02:38:26;30.60;;;17.35;;
4601;SDS011;2313;48.552;9.370;2023-02-11T02:41:05;37.03;;;17.80;;
4601;SDS011;2313;48.552;9.370;2023-02-11T02:43:35;34.20;;;18.73;;
4601;SDS011;2313;48.552;9.370;2023-02-11T02:46:36;36.20;;;17.90;;
4601;SDS011;2313;48.552;9.370;2023-02-11T02:48:56;29.98;;;16.10;;
4601;SDS011;2313;48.552;9.370;2023-02-11T02:59:45;31.88;;;17.23;;
4601;SDS011;2313;48.552;9.370;2023-02-11T03:02:33;33.70;;;17.67;;
4601;SDS011;2313;48.552;9.370;2023-02-11T03:07:51;31.88;;;17.13;;
4601;SDS011;2313;48.552;9.370;2023-02-11T03:10:28;31.40;;;17.42;;
4601;SDS011;2313;48.552;9.370;2023-02-11T03:12:57;34.13;;;17.67;;
4601;SDS011;2313;48.552;9.370;2023-02-11T03:15:24;33.00;;;16.60;;
4601;SDS011;2313;48.552;9.370;2023-02-11T03:17:53;30.08;;;16.10;;
4601;SDS011;2313;48.552;9.370;2023-02-11T03:20:22;31.23;;;16.88;;
4601;SDS011;2313;48.552;9.370;2023-02-11T03:23:02;35.93;;;18.00;;
4601;SDS011;2313;48.552;9.370;2023-02-11T03:25:29;35.53;;;18.55;;
4601;SDS011;2313;48.552;9.370;2023-02-11T03:30:37;38.47;;;18.33;;
4601;SDS011;2313;48.552;9.370;2023-02-11T03:33:14;30.95;;;16.58;;
4601;SDS011;2313;48.552;9.370;2023-02-11T03:35:49;34.60;;;17.80;;
4601;SDS011;2313;48.552;9.370;2023-02-11T03:38:24;33.85;;;17.02;;
4601;SDS011;2313;48.552;9.370;2023-02-11T03:40:54;33.85;;;18.20;;
4601;SDS011;2313;48.552;9.370;2023-02-11T03:43:25;34.20;;;16.50;;
4601;SDS011;2313;48.552;9.370;2023-02-11T03:45:56;31.25;;;17.38;;
4601;SDS011;2313;48.552;9.370;2023-02-11T03:50:57;36.47;;;18.45;;
4601;SDS011;2313;48.552;9.370;2023-02-11T03:53:25;33.83;;;17.38;;
4601;SDS011;2313;48.552;9.370;2023-02-11T03:55:51;36.83;;;17.90;;
4601;SDS011;2313;48.552;9.370;2023-02-11T03:58:20;31.20;;;17.52;;
4601;SDS011;2313;48.552;9.370;2023-02-11T04:00:46;30.63;;;16.57;;
4601;SDS011;2313;48.552;9.370;2023-02-11T04:03:11;33.07;;;18.70;;
4601;SDS011;2313;48.552;9.370;2023-02-11T04:05:37;37.20;;;17.50;;
4601;SDS011;2313;48.552;9.370;2023-02-11T04:08:03;34.90;;;18.30;;
4601;SDS011;2313;48.552;9.370;2023-02-11T04:10:30;36.97;;;17.50;;
4601;SDS011;2313;48.552;9.370;2023-02-11T04:12:55;35.50;;;18.23;;
4601;SDS011;2313;48.552;9.370;2023-02-11T04:15:21;35.03;;;18.47;;
4601;SDS011;2313;48.552;9.370;2023-02-11T04:17:47;33.37;;;17.87;;
4601;SDS011;2313;48.552;9.370;2023-02-11T04:20:12;30.83;;;17.23;;
4601;SDS011;2313;48.552;9.370;2023-02-11T04:22:38;28.83;;;15.33;;
4601;SDS011;2313;48.552;9.370;2023-02-11T04:25:04;31.05;;;16.70;;
4601;SDS011;2313;48.552;9.370;2023-02-11T04:27:31;33.13;;;17.42;;
4601;SDS011;2313;48.552;9.370;2023-02-11T04:29:57;36.33;;;18.50;;
4601;SDS011;2313;48.552;9.370;2023-02-11T04:32:22;35.53;;;18.37;;
4601;SDS011;2313;48.552;9.370;2023-02-11T04:34:48;36.13;;;19.40;;
4601;SDS011;2313;48.552;9.370;2023-02-11T04:37:13;28.43;;;15.53;;
4601;SDS011;2313;48.552;9.370;2023-02-11T04:39:39;33.37;;;16.63;;
4601;SDS011;2313;48.552;9.370;2023-02-11T04:42:05;36.97;;;16.77;;
4601;SDS011;2313;48.552;9.370;2023-02-11T04:44:31;25.23;;;14.45;;
4601;SDS011;2313;48.552;9.370;2023-02-11T04:46:57;28.23;;;15.10;;
4601;SDS011;2313;48.552;9.370;2023-02-11T04:49:22;25.37;;;14.33;;
4601;SDS011;2313;48.552;9.370;2023-02-11T04:51:48;33.93;;;17.03;;
4601;SDS011;2313;48.552;9.370;2023-02-11T04:54:14;27.73;;;15.40;;
4601;SDS011;2313;48.552;9.370;2023-02-11T04:56:39;32.53;;;17.47;;
4601;SDS011;2313;48.552;9.370;2023-02-11T04:59:05;37.20;;;19.27;;
4601;SDS011;2313;48.552;9.370;2023-02-11T05:01:31;43.47;;;19.13;;
4601;SDS011;2313;48.552;9.370;2023-02-11T05:03:56;32.17;;;18.40;;
4601;SDS011;2313;48.552;9.370;2023-02-11T05:06:23;34.88;;;18.40;;
4601;SDS011;2313;48.552;9.370;2023-02-11T05:08:49;37.20;;;19.10;;
4601;SDS011;2313;48.552;9.370;2023-02-11T05:11:17;36.00;;;18.50;;
4601;SDS011;2313;48.552;9.370;2023-02-11T05:13:44;36.83;;;19.75;;
4601;SDS011;2313;48.552;9.370;2023-02-11T05:16:11;32.80;;;18.13;;
4601;SDS011;2313;48.552;9.370;2023-02-11T05:18:37;34.30;;;18.90;;
4601;SDS011;2313;48.552;9.370;2023-02-11T05:21:07;34.13;;;19.20;;
4601;SDS011;2313;48.552;9.370;2023-02-11T05:23:34;34.15;;;18.17;;
4601;SDS011;2313;48.552;9.370;2023-02-11T05:26:01;36.58;;;19.75;;
4601;SDS011;2313;48.552;9.370;2023-02-11T05:28:27;34.20;;;18.63;;
4601;SDS011;2313;48.552;9.370;2023-02-11T05:30:53;34.43;;;18.50;;
4601;SDS011;2313;48.552;9.370;2023-02-11T05:33:19;36.00;;;19.00;;
4601;SDS011;2313;48.552;9.370;2023-02-11T05:35:45;34.77;;;19.50;;
4601;SDS011;2313;48.552;9.370;2023-02-11T05:38:11;33.00;;;18.83;;
4601;SDS011;2313;48.552;9.370;2023-02-11T05:40:36;34.53;;;19.67;;
4601;SDS011;2313;48.552;9.370;2023-02-11T05:43:02;34.37;;;19.23;;
4601;SDS011;2313;48.552;9.370;2023-02-11T05:45:28;32.80;;;18.80;;
4601;SDS011;2313;48.552;9.370;2023-02-11T05:47:53;36.83;;;18.17;;
4601;SDS011;2313;48.552;9.370;2023-02-11T05:50:19;31.73;;;19.10;;
4601;SDS011;2313;48.552;9.370;2023-02-11T05:52:45;33.40;;;19.47;;
4601;SDS011;2313;48.552;9.370;2023-02-11T05:55:10;34.17;;;18.70;;
4601;SDS011;2313;48.552;9.370;2023-02-11T05:57:36;40.13;;;20.80;;
4601;SDS011;2313;48.552;9.370;2023-02-11T06:00:02;34.40;;;18.73;;
4601;SDS011;2313;48.552;9.370;2023-02-11T06:02:29;32.83;;;16.85;;
4601;SDS011;2313;48.552;9.370;2023-02-11T06:04:54;31.93;;;16.80;;
4601;SDS011;2313;48.552;9.370;2023-02-11T06:07:20;29.43;;;16.73;;
4601;SDS011;2313;48.552;9.370;2023-02-11T06:09:45;33.93;;;16.27;;
4601;SDS011;2313;48.552;9.370;2023-02-11T06:12:11;35.30;;;19.80;;
4601;SDS011;2313;48.552;9.370;2023-02-11T06:14:37;30.23;;;17.53;;
4601;SDS011;2313;48.552;9.370;2023-02-11T06:17:02;30.77;;;17.43;;
4601;SDS011;2313;48.552;9.370;2023-02-11T06:19:28;28.20;;;17.47;;
4601;SDS011;2313;48.552;9.370;2023-02-11T06:21:55;32.85;;;17.65;;
4601;SDS011;2313;48.552;9.370;2023-02-11T06:24:21;31.63;;;18.47;;
4601;SDS011;2313;48.552;9.370;2023-02-11T06:26:46;30.27;;;17.43;;
4601;SDS011;2313;48.552;9.370;2023-02-11T06:29:12;35.03;;;19.57;;
4601;SDS011;2313;48.552;9.370;2023-02-11T06:31:37;55.30;;;29.13;;
4601;SDS011;2313;48.552;9.370;2023-02-11T06:34:03;63.50;;;29.40;;
4601;SDS011;2313;48.552;9.370;2023-02-11T06:36:29;51.90;;;24.50;;
4601;SDS011;2313;48.552;9.370;2023-02-11T06:38:55;40.93;;;21.73;;
4601;SDS011;2313;48.552;9.370;2023-02-11T06:41:21;38.17;;;20.70;;
4601;SDS011;2313;48.552;9.370;2023-02-11T06:43:47;35.90;;;19.67;;
4601;SDS011;2313;48.552;9.370;2023-02-11T06:46:13;35.55;;;19.85;;
4601;SDS011;2313;48.552;9.370;2023-02-11T06:48:39;36.78;;;20.05;;
4601;SDS011;2313;48.552;9.370;2023-02-11T06:51:09;33.37;;;19.60;;
4601;SDS011;2313;48.552;9.370;2023-02-11T06:53:36;37.45;;;20.02;;
4601;SDS011;2313;48.552;9.370;2023-02-11T06:56:07;33.25;;;19.73;;
4601;SDS011;2313;48.552;9.370;2023-02-11T06:58:35;36.58;;;20.20;;
4601;SDS011;2313;48.552;9.370;2023-02-11T07:01:08;39.17;;;19.27;;
4601;SDS011;2313;48.552;9.370;2023-02-11T07:03:36;34.40;;;19.30;;
4601;SDS011;2313;48.552;9.370;2023-02-11T07:06:03;33.03;;;16.67;;
4601;SDS011;2313;48.552;9.370;2023-02-11T07:08:34;31.67;;;16.98;;
4601;SDS011;2313;48.552;9.370;2023-02-11T07:11:00;25.40;;;15.40;;
4601;SDS011;2313;48.552;9.370;2023-02-11T07:13:32;27.75;;;16.15;;
4601;SDS011;2313;48.552;9.370;2023-02-11T07:15:58;31.80;;;17.30;;
4601;SDS011;2313;48.552;9.370;2023-02-11T07:18:23;33.80;;;17.47;;
4601;SDS011;2313;48.552;9.370;2023-02-11T07:20:49;32.80;;;18.40;;
4601;SDS011;2313;48.552;9.370;2023-02-11T07:23:14;37.87;;;19.53;;
4601;SDS011;2313;48.552;9.370;2023-02-11T07:25:40;42.80;;;22.53;;
4601;SDS011;2313;48.552;9.370;2023-02-11T07:28:05;47.40;;;21.97;;
4601;SDS011;2313;48.552;9.370;2023-02-11T07:30:31;36.10;;;19.80;;
4601;SDS011;2313;48.552;9.370;2023-02-11T07:32:57;61.70;;;27.00;;
4601;SDS011;2313;48.552;9.370;2023-02-11T07:35:22;40.77;;;20.90;;
4601;SDS011;2313;48.552;9.370;2023-02-11T07:37:48;42.20;;;20.77;;
4601;SDS011;2313;48.552;9.370;2023-02-11T07:40:13;45.43;;;21.90;;
4601;SDS011;2313;48.552;9.370;2023-02-11T07:42:39;33.00;;;19.50;;
4601;SDS011;2313;48.552;9.370;2023-02-11T07:45:05;34.67;;;20.05;;
4601;SDS011;2313;48.552;9.370;2023-02-11T07:47:32;40.88;;;22.27;;
4601;SDS011;2313;48.552;9.370;2023-02-11T07:49:59;45.38;;;21.92;;
4601;SDS011;2313;48.552;9.370;2023-02-11T07:52:27;46.13;;;24.60;;
4601;SDS011;2313;48.552;9.370;2023-02-11T07:54:54;47.72;;;22.90;;
4601;SDS011;2313;48.552;9.370;2023-02-11T07:57:19;46.77;;;24.10;;
4601;SDS011;2313;48.552;9.370;2023-02-11T07:59:45;39.70;;;21.80;;
4601;SDS011;2313;48.552;9.370;2023-02-11T08:02:10;40.23;;;22.83;;
4601;SDS011;2313;48.552;9.370;2023-02-11T08:04:36;40.83;;;21.60;;
4601;SDS011;2313;48.552;9.370;2023-02-11T08:07:02;34.77;;;20.30;;
4601;SDS011;2313;48.552;9.370;2023-02-11T08:09:27;39.90;;;19.73;;
4601;SDS011;2313;48.552;9.370;2023-02-11T08:11:53;43.50;;;20.73;;
4601;SDS011;2313;48.552;9.370;2023-02-11T08:14:18;41.17;;;23.03;;
4601;SDS011;2313;48.552;9.370;2023-02-11T08:16:44;42.83;;;23.40;;
4601;SDS011;2313;48.552;9.370;2023-02-11T08:19:11;39.60;;;23.47;;
4601;SDS011;2313;48.552;9.370;2023-02-11T08:21:39;47.17;;;25.05;;
4601;SDS011;2313;48.552;9.370;2023-02-11T08:24:05;38.93;;;24.33;;
4601;SDS011;2313;48.552;9.370;2023-02-11T08:26:31;43.13;;;24.60;;
4601;SDS011;2313;48.552;9.370;2023-02-11T08:29:04;47.83;;;26.40;;
4601;SDS011;2313;48.552;9.370;2023-02-11T08:31:33;51.75;;;27.60;;
4601;SDS011;2313;48.552;9.370;2023-02-11T08:34:01;47.10;;;26.40;;
4601;SDS011;2313;48.552;9.370;2023-02-11T08:36:28;46.65;;;26.67;;
4601;SDS011;2313;48.552;9.370;2023-02-11T08:38:57;42.13;;;24.30;;
4601;SDS011;2313;48.552;9.370;2023-02-11T08:41:24;42.20;;;25.20;;
4601;SDS011;2313;48.552;9.370;2023-02-11T08:43:50;48.90;;;26.52;;
4601;SDS011;2313;48.552;9.370;2023-02-11T08:46:17;46.30;;;25.70;;
4601;SDS011;2313;48.552;9.370;2023-02-11T08:48:43;23.13;;;14.77;;
4601;SDS011;2313;48.552;9.370;2023-02-11T08:51:12;28.00;;;14.90;;
4601;SDS011;2313;48.552;9.370;2023-02-11T08:53:41;49.05;;;26.90;;
4601;SDS011;2313;48.552;9.370;2023-02-11T08:56:07;49.10;;;27.63;;
4601;SDS011;2313;48.552;9.370;2023-02-11T08:58:34;60.42;;;33.08;;
4601;SDS011;2313;48.552;9.370;2023-02-11T09:00:59;58.37;;;33.60;;
4601;SDS011;2313;48.552;9.370;2023-02-11T09:03:25;51.23;;;29.47;;
4601;SDS011;2313;48.552;9.370;2023-02-11T09:05:51;48.93;;;29.40;;
4601;SDS011;2313;48.552;9.370;2023-02-11T09:08:17;42.90;;;24.88;;
4601;SDS011;2313;48.552;9.370;2023-02-11T09:10:43;31.27;;;19.48;;
4601;SDS011;2313;48.552;9.370;2023-02-11T09:13:09;13.50;;;9.17;;
4601;SDS011;2313;48.552;9.370;2023-02-11T09:15:35;8.60;;;6.20;;
4601;SDS011;2313;48.552;9.370;2023-02-11T09:18:03;10.10;;;6.53;;
4601;SDS011;2313;48.552;9.370;2023-02-11T09:20:29;12.53;;;8.00;;
4601;SDS011;2313;48.552;9.370;2023-02-11T09:22:55;11.20;;;7.50;;
4601;SDS011;2313;48.552;9.370;2023-02-11T09:25:22;10.00;;;7.00;;
4601;SDS011;2313;48.552;9.370;2023-02-11T09:27:48;8.53;;;6.20;;
4601;SDS011;2313;48.552;9.370;2023-02-11T09:30:15;13.23;;;7.07;;
4601;SDS011;2313;48.552;9.370;2023-02-11T09:32:41;11.23;;;6.67;;
4601;SDS011;2313;48.552;9.370;2023-02-11T09:35:06;9.60;;;6.83;;
4601;SDS011;2313;48.552;9.370;2023-02-11T09:37:32;8.70;;;6.50;;
4601;SDS011;2313;48.552;9.370;2023-02-11T09:39:58;9.13;;;5.60;;
4601;SDS011;2313;48.552;9.370;2023-02-11T09:45:12;23.63;;;7.43;;
4601;SDS011;2313;48.552;9.370;2023-02-11T09:47:49;12.00;;;6.67;;
4601;SDS011;2313;48.552;9.370;2023-02-11T09:50:21;7.07;;;5.20;;
4601;SDS011;2313;48.552;9.370;2023-02-11T09:52:54;7.47;;;5.37;;
4601;SDS011;2313;48.552;9.370;2023-02-11T09:55:30;10.87;;;6.87;;
4601;SDS011;2313;48.552;9.370;2023-02-11T09:58:02;17.00;;;11.83;;
4601;SDS011;2313;48.552;9.370;2023-02-11T10:00:33;18.97;;;11.70;;
4601;SDS011;2313;48.552;9.370;2023-02-11T10:03:14;16.33;;;10.90;;
4601;SDS011;2313;48.552;9.370;2023-02-11T10:11:30;16.60;;;11.70;;
4601;SDS011;2313;48.552;9.370;2023-02-11T10:14:10;15.17;;;7.50;;
4601;SDS011;2313;48.552;9.370;2023-02-11T10:24:53;9.33;;;7.20;;
4601;SDS011;2313;48.552;9.370;2023-02-11T10:27:23;6.70;;;5.80;;
4601;SDS011;2313;48.552;9.370;2023-02-11T10:30:00;10.53;;;7.30;;
4601;SDS011;2313;48.552;9.370;2023-02-11T10:32:38;9.70;;;6.70;;
4601;SDS011;2313;48.552;9.370;2023-02-11T10:35:15;10.37;;;6.97;;
4601;SDS011;2313;48.552;9.370;2023-02-11T10:37:43;10.93;;;8.20;;
4601;SDS011;2313;48.552;9.370;2023-02-11T10:40:13;13.07;;;8.60;;
4601;SDS011;2313;48.552;9.370;2023-02-11T10:42:41;15.07;;;9.97;;
4601;SDS011;2313;48.552;9.370;2023-02-11T10:45:33;20.23;;;11.93;;
4601;SDS011;2313;48.552;9.370;2023-02-11T10:48:03;34.30;;;17.50;;
4601;SDS011;2313;48.552;9.370;2023-02-11T10:50:33;25.10;;;16.40;;
4601;SDS011;2313;48.552;9.370;2023-02-11T10:53:18;27.07;;;18.80;;
4601;SDS011;2313;48.552;9.370;2023-02-11T10:55:51;26.53;;;17.20;;
4601;SDS011;2313;48.552;9.370;2023-02-11T10:58:22;33.03;;;17.80;;
4601;SDS011;2313;48.552;9.370;2023-02-11T11:00:55;28.10;;;17.10;;
4601;SDS011;2313;48.552;9.370;2023-02-11T11:03:23;29.20;;;18.80;;
4601;SDS011;2313;48.552;9.370;2023-02-11T11:05:51;25.77;;;17.10;;
4601;SDS011;2313;48.552;9.370;2023-02-11T11:08:23;27.40;;;17.87;;
4601;SDS011;2313;48.552;9.370;2023-02-11T11:11:10;26.90;;;15.80;;
4601;SDS011;2313;48.552;9.370;2023-02-11T11:13:38;23.93;;;16.90;;
4601;SDS011;2313;48.552;9.370;2023-02-11T11:21:39;24.30;;;16.83;;
4601;SDS011;2313;48.552;9.370;2023-02-11T11:24:17;32.00;;;18.17;;
4601;SDS011;2313;48.552;9.370;2023-02-11T11:26:58;29.00;;;17.23;;
4601;SDS011;2313;48.552;9.370;2023-02-11T11:29:28;24.00;;;16.47;;
4601;SDS011;2313;48.552;9.370;2023-02-11T11:32:01;25.00;;;16.00;;
4601;SDS011;2313;48.552;9.370;2023-02-11T11:34:37;27.50;;;16.40;;
4601;SDS011;2313;48.552;9.370;2023-02-11T11:37:12;27.07;;;16.40;;
4601;SDS011;2313;48.552;9.370;2023-02-11T11:39:48;24.90;;;16.17;;
4601;SDS011;2313;48.552;9.370;2023-02-11T11:42:28;26.90;;;17.63;;
4601;SDS011;2313;48.552;9.370;2023-02-11T11:45:03;28.10;;;16.77;;
4601;SDS011;2313;48.552;9.370;2023-02-11T11:47:53;27.00;;;19.07;;
4601;SDS011;2313;48.552;9.370;2023-02-11T11:50:43;24.60;;;17.10;;
4601;SDS011;2313;48.552;9.370;2023-02-11T11:53:14;25.47;;;17.70;;
4601;SDS011;2313;48.552;9.370;2023-02-11T11:58:30;27.73;;;18.60;;
4601;SDS011;2313;48.552;9.370;2023-02-11T12:16:56;25.07;;;17.50;;
4601;SDS011;2313;48.552;9.370;2023-02-11T12:19:39;24.07;;;15.43;;
4601;SDS011;2313;48.552;9.370;2023-02-11T12:22:33;26.47;;;16.10;;
4601;SDS011;2313;48.552;9.370;2023-02-11T12:25:29;23.10;;;15.17;;
4601;SDS011;2313;48.552;9.370;2023-02-11T12:40:00;29.30;;;15.53;;
4601;SDS011;2313;48.552;9.370;2023-02-11T12:56:39;26.30;;;14.93;;
4601;SDS011;2313;48.552;9.370;2023-02-11T13:01:59;22.30;;;13.67;;
4601;SDS011;2313;48.552;9.370;2023-02-11T13:04:39;24.70;;;15.20;;
4601;SDS011;2313;48.552;9.370;2023-02-11T13:07:13;25.70;;;14.10;;
4601;SDS011;2313;48.552;9.370;2023-02-11T13:09:48;23.73;;;13.97;;
4601;SDS011;2313;48.552;9.370;2023-02-11T13:12:36;21.40;;;12.83;;
4601;SDS011;2313;48.552;9.370;2023-02-11T13:15:20;26.57;;;14.13;;
4601;SDS011;2313;48.552;9.370;2023-02-11T13:20:40;22.23;;;12.80;;
4601;SDS011;2313;48.552;9.370;2023-02-11T13:23:18;23.60;;;13.13;;
4601;SDS011;2313;48.552;9.370;2023-02-11T13:37:18;22.07;;;14.57;;
4601;SDS011;2313;48.552;9.370;2023-02-11T13:40:00;18.80;;;11.50;;
4601;SDS011;2313;48.552;9.370;2023-02-11T13:42:32;18.23;;;11.40;;
4601;SDS011;2313;48.552;9.370;2023-02-11T13:48:05;18.50;;;10.30;;
4601;SDS011;2313;48.552;9.370;2023-02-11T13:50:44;19.40;;;10.20;;
4601;SDS011;2313;48.552;9.370;2023-02-11T13:53:12;12.80;;;8.63;;
4601;SDS011;2313;48.552;9.370;2023-02-11T13:55:41;13.43;;;8.40;;
4601;SDS011;2313;48.552;9.370;2023-02-11T14:08:58;21.50;;;10.30;;
4601;SDS011;2313;48.552;9.370;2023-02-11T14:19:36;19.63;;;10.63;;
4601;SDS011;2313;48.552;9.370;2023-02-11T14:22:04;15.17;;;9.73;;
4601;SDS011;2313;48.552;9.370;2023-02-11T14:27:06;20.67;;;13.10;;
4601;SDS011;2313;48.552;9.370;2023-02-11T14:29:41;25.40;;;12.80;;
4601;SDS011;2313;48.552;9.370;2023-02-11T14:32:18;16.20;;;10.80;;
4601;SDS011;2313;48.552;9.370;2023-02-11T14:37:38;20.17;;;11.80;;
4601;SDS011;2313;48.552;9.370;2023-02-11T14:42:51;17.43;;;10.80;;
4601;SDS011;2313;48.552;9.370;2023-02-11T14:45:20;19.47;;;11.70;;
4601;SDS011;2313;48.552;9.370;2023-02-11T14:50:34;16.50;;;11.10;;
4601;SDS011;2313;48.552;9.370;2023-02-11T14:53:12;19.30;;;11.07;;
4601;SDS011;2313;48.552;9.370;2023-02-11T14:55:40;18.63;;;11.93;;
4601;SDS011;2313;48.552;9.370;2023-02-11T14:58:22;17.50;;;12.07;;
4601;SDS011;2313;48.552;9.370;2023-02-11T15:00:56;18.30;;;12.27;;
4601;SDS011;2313;48.552;9.370;2023-02-11T15:03:28;19.03;;;12.07;;
4601;SDS011;2313;48.552;9.370;2023-02-11T15:06:01;21.20;;;13.07;;
4601;SDS011;2313;48.552;9.370;2023-02-11T15:08:31;24.13;;;13.50;;
4601;SDS011;2313;48.552;9.370;2023-02-11T15:10:59;20.60;;;12.70;;
4601;SDS011;2313;48.552;9.370;2023-02-11T15:13:28;19.10;;;12.70;;
4601;SDS011;2313;48.552;9.370;2023-02-11T15:16:06;21.43;;;13.90;;
4601;SDS011;2313;48.552;9.370;2023-02-11T15:18:46;20.27;;;13.37;;
4601;SDS011;2313;48.552;9.370;2023-02-11T15:21:21;22.93;;;13.13;;
4601;SDS011;2313;48.552;9.370;2023-02-11T15:24:19;19.03;;;12.70;;
4601;SDS011;2313;48.552;9.370;2023-02-11T15:26:54;20.93;;;13.63;;
4601;SDS011;2313;48.552;9.370;2023-02-11T15:29:24;21.17;;;13.80;;
4601;SDS011;2313;48.552;9.370;2023-02-11T15:32:04;19.80;;;12.87;;
4601;SDS011;2313;48.552;9.370;2023-02-11T15:34:33;18.73;;;12.77;;
4601;SDS011;2313;48.552;9.370;2023-02-11T15:36:59;20.50;;;13.10;;
4601;SDS011;2313;48.552;9.370;2023-02-11T15:39:33;20.60;;;13.03;;
4601;SDS011;2313;48.552;9.370;2023-02-11T15:44:48;22.00;;;13.53;;
4601;SDS011;2313;48.552;9.370;2023-02-11T15:47:31;23.93;;;13.60;;
4601;SDS011;2313;48.552;9.370;2023-02-11T15:49:57;23.50;;;14.60;;
4601;SDS011;2313;48.552;9.370;2023-02-11T15:52:24;29.63;;;15.67;;
4601;SDS011;2313;48.552;9.370;2023-02-11T15:54:51;23.07;;;13.20;;
4601;SDS011;2313;48.552;9.370;2023-02-11T15:57:18;21.63;;;12.70;;
4601;SDS011;2313;48.552;9.370;2023-02-11T15:59:47;21.77;;;13.70;;
4601;SDS011;2313;48.552;9.370;2023-02-11T16:02:20;18.33;;;12.07;;
4601;SDS011;2313;48.552;9.370;2023-02-11T16:05:38;19.77;;;12.47;;
4601;SDS011;2313;48.552;9.370;2023-02-11T16:07:50;20.37;;;12.83;;
4601;SDS011;2313;48.552;9.370;2023-02-11T16:10:23;21.30;;;14.00;;
4601;SDS011;2313;48.552;9.370;2023-02-11T16:12:52;24.60;;;13.77;;
4601;SDS011;2313;48.552;9.370;2023-02-11T16:17:59;25.00;;;12.47;;
4601;SDS011;2313;48.552;9.370;2023-02-11T16:20:26;23.83;;;12.70;;
4601;SDS011;2313;48.552;9.370;2023-02-11T16:22:52;23.60;;;14.07;;
4601;SDS011;2313;48.552;9.370;2023-02-11T16:25:21;19.07;;;11.13;;
4601;SDS011;2313;48.552;9.370;2023-02-11T16:27:48;21.40;;;12.80;;
4601;SDS011;2313;48.552;9.370;2023-02-11T16:30:26;25.80;;;12.37;;
4601;SDS011;2313;48.552;9.370;2023-02-11T16:32:56;15.70;;;11.53;;
4601;SDS011;2313;48.552;9.370;2023-02-11T16:35:22;21.80;;;11.47;;
4601;SDS011;2313;48.552;9.370;2023-02-11T16:37:48;21.40;;;13.00;;
4601;SDS011;2313;48.552;9.370;2023-02-11T16:40:13;16.83;;;11.83;;
4601;SDS011;2313;48.552;9.370;2023-02-11T16:42:42;20.27;;;12.07;;
4601;SDS011;2313;48.552;9.370;2023-02-11T16:45:08;16.40;;;10.60;;
4601;SDS011;2313;48.552;9.370;2023-02-11T16:47:34;21.50;;;11.57;;
4601;SDS011;2313;48.552;9.370;2023-02-11T16:50:02;23.30;;;13.03;;
4601;SDS011;2313;48.552;9.370;2023-02-11T16:52:31;26.42;;;14.20;;
4601;SDS011;2313;48.552;9.370;2023-02-11T16:54:57;26.70;;;15.23;;
4601;SDS011;2313;48.552;9.370;2023-02-11T16:57:23;37.13;;;17.27;;
4601;SDS011;2313;48.552;9.370;2023-02-11T16:59:50;37.73;;;15.67;;
4601;SDS011;2313;48.552;9.370;2023-02-11T17:02:27;31.17;;;17.60;;
4601;SDS011;2313;48.552;9.370;2023-02-11T17:04:56;33.27;;;18.40;;
4601;SDS011;2313;48.552;9.370;2023-02-11T17:07:27;30.87;;;17.33;;
4601;SDS011;2313;48.552;9.370;2023-02-11T17:09:52;34.90;;;17.13;;
4601;SDS011;2313;48.552;9.370;2023-02-11T17:12:18;31.03;;;16.20;;
4601;SDS011;2313;48.552;9.370;2023-02-11T17:14:45;26.90;;;16.00;;
4601;SDS011;2313;48.552;9.370;2023-02-11T17:17:10;28.00;;;16.03;;
4601;SDS011;2313;48.552;9.370;2023-02-11T17:19:36;22.30;;;14.98;;
4601;SDS011;2313;48.552;9.370;2023-02-11T17:22:03;27.77;;;16.80;;
4601;SDS011;2313;48.552;9.370;2023-02-11T17:24:28;27.00;;;14.90;;
4601;SDS011;2313;48.552;9.370;2023-02-11T17:26:54;25.40;;;15.33;;
4601;SDS011;2313;48.552;9.370;2023-02-11T17:29:21;27.13;;;16.00;;
4601;SDS011;2313;48.552;9.370;2023-02-11T17:31:48;25.13;;;15.60;;
4601;SDS011;2313;48.552;9.370;2023-02-11T17:34:15;25.73;;;15.73;;
4601;SDS011;2313;48.552;9.370;2023-02-11T17:36:42;29.93;;;17.13;;
4601;SDS011;2313;48.552;9.370;2023-02-11T17:39:08;30.33;;;17.00;;